»·PEaware :: N973SE KSBP-L88

N973SE :: KSBP-L88

FLIGHT INFORMATION

Flight Status: Arrived
Operator: Privately registered:
United States
More flights under this callsign
Pilot: Stig E. (4778)
Aircraft: PIPER PA-28R-201 ARROW
(P28R)
More flights by this aircraft type
Origin: KSBP San Luis Co Regl
United States
Destination: L88 New Cuyama
United States
More flights between these airports :: More routes between these airports
Route:
File this flight plan on PilotEdge
Remarks:
Altitude:
(Current/Filed)
7,500ft
Speed:
(Current/Filed)
120kts
Departed: 27-Mar-18 11:28 AM
Arrived: 27-Mar-18 11:59 AM
Distance/Time
Traveled:
50nm/0:31
Distance/Time
To Go:
Arrived

Flight Plot

Page will automatically refresh every two minutes.

Flight plan parsing failed; only flown route is shown


Map Options




Map Legend


Flown Route
Filed Route
Departure Airport
Arrival Airport
Navaid (VOR, NDB)
Fix

Horizontal Profiles

Position Reports

Time Latitude Longitude Heading Altitude Ground
Speed
27-Mar-18 10:56 35.239087 -120.637076 180 200ft 0kts
27-Mar-18 10:57 35.239087 -120.637076 180 200ft 0kts
27-Mar-18 10:58 35.239087 -120.637076 180 200ft 0kts
27-Mar-18 10:59 35.239087 -120.637076 180 200ft 0kts
27-Mar-18 11:00 35.239087 -120.637076 180 200ft 0kts
27-Mar-18 11:01 35.239087 -120.637076 180 200ft 0kts
27-Mar-18 11:02 35.239087 -120.637076 180 200ft 0kts
27-Mar-18 11:03 35.239087 -120.637076 180 200ft 0kts
27-Mar-18 11:04 35.239087 -120.637076 180 200ft 0kts
27-Mar-18 11:05 35.239087 -120.637076 180 200ft 0kts
27-Mar-18 11:06 35.239087 -120.637076 180 200ft 0kts
27-Mar-18 11:07 35.239087 -120.637076 180 200ft 0kts
27-Mar-18 11:08 35.239087 -120.637076 180 200ft 0kts
27-Mar-18 11:09 35.239087 -120.637076 180 200ft 0kts
27-Mar-18 11:10 35.239087 -120.637076 180 200ft 0kts
27-Mar-18 11:11 35.239087 -120.637076 180 200ft 0kts
27-Mar-18 11:12 35.239087 -120.637076 180 200ft 0kts
27-Mar-18 11:13 35.239087 -120.637076 180 200ft 0kts
27-Mar-18 11:14 35.239087 -120.637076 180 200ft 0kts
27-Mar-18 11:15 35.239087 -120.637076 180 200ft 0kts
27-Mar-18 11:16 35.239087 -120.637076 180 200ft 0kts
27-Mar-18 11:17 35.239087 -120.637076 180 200ft 0kts
27-Mar-18 11:18 35.239087 -120.637076 180 200ft 0kts
27-Mar-18 11:19 35.239087 -120.637076 180 200ft 0kts
27-Mar-18 11:20 35.239087 -120.637076 180 200ft 0kts
27-Mar-18 11:21 35.239019 -120.637078 181 200ft 2kts
27-Mar-18 11:22 35.237202 -120.637500 218 199ft 13kts
27-Mar-18 11:23 35.234482 -120.633809 125 210ft 14kts
27-Mar-18 11:24 35.233263 -120.632204 221 211ft 0kts
27-Mar-18 11:25 35.233263 -120.632204 221 211ft 0kts
27-Mar-18 11:26 35.232908 -120.633005 302 209ft 11kts
27-Mar-18 11:27 35.241806 -120.649191 301 551ft 96kts
27-Mar-18 11:28 35.240735 -120.674964 168 1371ft 116kts
27-Mar-18 11:29 35.220168 -120.643291 124 1932ft 117kts
27-Mar-18 11:30 35.201826 -120.611474 124 2532ft 113kts
27-Mar-18 11:31 35.180491 -120.574862 121 3238ft 113kts
27-Mar-18 11:32 35.174456 -120.544507 94 3742ft 111kts
27-Mar-18 11:33 35.170111 -120.507187 93 4350ft 110kts
27-Mar-18 11:34 35.165678 -120.469411 92 4960ft 113kts
27-Mar-18 11:35 35.161210 -120.431385 92 5570ft 113kts
27-Mar-18 11:36 35.156767 -120.393704 90 6180ft 111kts
27-Mar-18 11:37 35.152421 -120.356571 90 6782ft 110kts
27-Mar-18 11:38 35.147759 -120.318023 91 7238ft 119kts
27-Mar-18 11:39 35.142766 -120.276767 91 7490ft 130kts
27-Mar-18 11:40 35.137335 -120.232051 91 7489ft 134kts
27-Mar-18 11:41 35.131897 -120.186983 91 7487ft 134kts
27-Mar-18 11:42 35.126474 -120.141907 91 7485ft 133kts
27-Mar-18 11:43 35.121086 -120.097127 91 7482ft 133kts
27-Mar-18 11:44 35.112227 -120.053735 121 7478ft 138kts
27-Mar-18 11:45 35.088674 -120.016091 122 7079ft 138kts
27-Mar-18 11:46 35.065907 -119.979181 122 6487ft 135kts
27-Mar-18 11:47 35.043789 -119.942597 122 5895ft 133kts
27-Mar-18 11:48 35.022217 -119.906119 122 5301ft 132kts
27-Mar-18 11:49 35.001148 -119.869707 122 4708ft 131kts
27-Mar-18 11:50 34.982447 -119.831728 117 4110ft 130kts
27-Mar-18 11:51 34.964879 -119.793334 117 3515ft 130kts
27-Mar-18 11:52 34.947809 -119.755271 117 3097ft 118kts
27-Mar-18 11:53 34.933469 -119.723589 117 3101ft 102kts
27-Mar-18 11:54 34.919635 -119.693680 117 3101ft 100kts
27-Mar-18 11:55 34.908028 -119.664942 104 3065ft 85kts
27-Mar-18 11:56 34.926054 -119.654632 342 2736ft 82kts
27-Mar-18 11:57 34.936989 -119.678282 297 2261ft 74kts
27-Mar-18 11:58 34.942304 -119.690951 319 2153ft 11kts
27-Mar-18 11:59 34.942839 -119.690531 305 2153ft 1kts
27-Mar-18 12:00 34.942839 -119.690531 305 2153ft 0kts
27-Mar-18 12:01 34.942839 -119.690531 305 2153ft 0kts
27-Mar-18 12:02 34.942839 -119.690531 305 2153ft 0kts

Navigation Log

Ident Type
Flight plan parsing failed, navigation log unavailable